createdAt,value
2017-09-23T16:57:28.234Z,69.37
2017-09-23T16:59:56.730Z,69.94
2017-09-23T17:02:24.353Z,70.27
2017-09-23T17:04:52.568Z,70.71
2017-09-23T17:07:20.128Z,71.11
2017-09-23T17:09:49.698Z,71.45
2017-09-23T17:12:17.290Z,71.56
2017-09-23T17:14:46.814Z,71.67
2017-09-23T17:17:14.591Z,71.97
2017-09-23T17:19:42.515Z,72.46
2017-09-23T17:22:10.451Z,72.85
2017-09-23T17:24:38.027Z,73.41
2017-09-23T17:27:06.154Z,73.72
2017-09-23T17:29:33.867Z,73.91
2017-09-23T17:32:01.536Z,74.25
2017-09-23T17:34:29.923Z,74.73
2017-09-23T17:36:58.054Z,75.51
2017-09-23T17:39:25.844Z,75.39
2017-09-23T17:41:53.611Z,75.83
2017-09-23T17:44:22.600Z,77.16
2017-09-23T17:46:50.513Z,77.69
2017-09-23T17:51:52.082Z,78.80
2017-09-23T17:54:19.897Z,79.35
2017-09-23T17:56:47.480Z,79.67
2017-09-23T17:59:16.298Z,80.08
2017-09-23T18:01:43.908Z,80.38
2017-09-23T18:04:13.173Z,80.63
2017-09-23T18:06:41.135Z,80.83
2017-09-23T18:09:08.882Z,80.46
2017-09-23T18:11:36.452Z,80.92
2017-09-23T18:14:04.294Z,80.67
2017-09-23T18:16:31.892Z,80.91
2017-09-23T18:19:00.538Z,81.19
2017-09-23T18:21:28.120Z,82.04
2017-09-23T18:23:55.695Z,82.23
2017-09-23T18:26:23.610Z,81.99
2017-09-23T18:28:51.239Z,82.06
2017-09-23T18:31:18.833Z,82.40
2017-09-23T18:33:46.424Z,82.80
2017-09-23T18:36:15.411Z,82.72
2017-09-23T18:38:43.061Z,83.57
2017-09-23T18:41:10.680Z,83.69
2017-09-23T18:43:38.696Z,83.73
2017-09-23T18:46:06.298Z,83.84
2017-09-23T18:48:33.838Z,83.52
2017-09-23T18:51:02.920Z,84.15
2017-09-23T18:53:30.495Z,83.95
2017-09-23T18:55:58.059Z,84.00
2017-09-23T18:58:25.657Z,83.90
2017-09-23T19:00:53.238Z,84.37
2017-09-23T19:03:20.826Z,83.87
2017-09-23T19:05:48.494Z,83.37
2017-09-23T19:08:17.878Z,83.24
2017-09-23T19:10:45.452Z,83.04
2017-09-23T19:13:13.093Z,82.94
2017-09-23T19:15:40.734Z,82.99
2017-09-23T19:18:08.597Z,83.22
2017-09-23T19:20:36.177Z,83.23
2017-09-23T19:23:03.755Z,83.25
2017-09-23T19:25:31.329Z,83.10
2017-09-23T19:27:59.094Z,83.27
2017-09-23T19:30:26.713Z,83.67
2017-09-23T19:32:55.915Z,83.76
2017-09-23T19:35:24.014Z,83.99
2017-09-23T19:37:51.616Z,83.93
2017-09-23T19:40:21.294Z,83.84
2017-09-23T19:42:48.908Z,84.25
2017-09-23T19:45:16.474Z,84.56
2017-09-23T19:47:44.080Z,84.82
2017-09-23T19:50:11.664Z,84.87
2017-09-23T19:52:39.253Z,85.02
2017-09-23T19:55:06.832Z,85.12
2017-09-23T19:57:34.532Z,85.03
2017-09-23T20:00:03.463Z,84.88
2017-09-23T20:02:31.503Z,84.92
2017-09-23T20:04:59.076Z,85.23
2017-09-23T20:07:26.973Z,86.09
2017-09-23T20:09:54.572Z,86.29
2017-09-23T20:12:22.167Z,86.27
2017-09-23T20:14:49.881Z,86.30
2017-09-23T20:17:17.454Z,86.34
2017-09-23T20:19:45.240Z,86.35
2017-09-23T20:22:12.804Z,86.27
2017-09-23T20:24:40.398Z,86.27
2017-09-23T20:27:08.003Z,86.07
2017-09-23T20:29:35.951Z,86.03
2017-09-23T20:32:03.516Z,85.72
2017-09-23T20:34:31.126Z,86.08
2017-09-23T20:36:58.768Z,86.16
2017-09-23T20:39:27.559Z,86.32
2017-09-23T20:41:55.123Z,86.26
2017-09-23T20:44:22.690Z,86.14
2017-09-23T20:46:50.925Z,86.23
2017-09-23T20:49:18.495Z,86.19
2017-09-23T20:51:46.470Z,86.44
2017-09-23T20:54:14.048Z,86.67
2017-09-23T20:56:41.613Z,86.55
2017-09-23T20:59:09.248Z,86.80
2017-09-23T21:01:37.207Z,86.63
2017-09-23T21:04:04.785Z,86.44
2017-09-23T21:06:32.359Z,86.63
2017-09-23T21:08:59.967Z,86.45
2017-09-23T21:11:27.600Z,86.39
2017-09-23T21:13:55.310Z,86.62
2017-09-23T21:16:22.973Z,86.56
2017-09-23T21:18:50.668Z,86.44
2017-09-23T21:21:18.265Z,86.33
2017-09-23T21:23:45.848Z,86.17
2017-09-23T21:26:13.408Z,86.44
2017-09-23T21:28:41.014Z,86.65
2017-09-23T21:31:08.570Z,86.97
2017-09-23T21:33:36.464Z,87.24
2017-09-23T21:36:04.043Z,87.28
2017-09-23T21:38:31.634Z,87.08
2017-09-23T21:40:59.242Z,86.82
2017-09-23T21:43:27.593Z,87.07
2017-09-23T21:45:55.188Z,87.03
2017-09-23T21:48:23.089Z,87.08
2017-09-23T21:50:50.707Z,87.05
2017-09-23T21:53:18.274Z,87.20
2017-09-23T21:55:46.083Z,87.10
2017-09-23T21:58:14.822Z,86.93
2017-09-23T22:00:42.404Z,87.02
2017-09-23T22:03:09.990Z,87.13
2017-09-23T22:05:37.567Z,87.05
2017-09-23T22:08:05.156Z,87.65
2017-09-23T22:10:32.729Z,88.22
2017-09-23T22:13:00.342Z,88.62
2017-09-23T22:15:27.934Z,88.85
2017-09-23T22:17:55.873Z,89.13
2017-09-23T22:20:23.436Z,89.27
2017-09-23T22:22:51.013Z,89.26
2017-09-23T22:25:18.612Z,89.43
2017-09-23T22:27:46.207Z,89.38
2017-09-23T22:30:15.150Z,89.75
2017-09-23T22:32:42.860Z,89.76
2017-09-23T22:35:10.450Z,89.76
2017-09-23T22:37:38.027Z,89.72
2017-09-23T22:40:05.935Z,89.46
2017-09-23T22:42:33.500Z,89.67
2017-09-23T22:45:01.094Z,89.94
2017-09-23T22:47:28.680Z,89.93
2017-09-23T22:49:56.232Z,89.96
2017-09-23T22:52:23.817Z,89.81
2017-09-23T22:54:51.389Z,90.14
2017-09-23T22:57:19.032Z,89.96
2017-09-23T22:59:46.605Z,89.83
2017-09-23T23:02:14.459Z,89.74
2017-09-23T23:04:42.032Z,89.79
2017-09-23T23:07:09.604Z,89.84
2017-09-23T23:09:37.237Z,90.01
2017-09-23T23:12:04.806Z,90.20
2017-09-23T23:14:32.496Z,90.09
2017-09-23T23:17:00.076Z,89.84
2017-09-23T23:19:27.863Z,89.72
2017-09-23T23:21:55.406Z,89.62
2017-09-23T23:24:23.000Z,89.47
2017-09-23T23:26:50.575Z,89.81
2017-09-23T23:29:18.177Z,90.41
2017-09-23T23:31:46.563Z,90.26
2017-09-23T23:34:14.156Z,90.18
2017-09-23T23:36:41.747Z,89.99
2017-09-23T23:39:09.304Z,89.94
2017-09-23T23:41:36.960Z,89.69
2017-09-23T23:44:04.528Z,89.29
2017-09-23T23:46:32.115Z,89.12
2017-09-23T23:48:59.685Z,89.39
2017-09-23T23:51:27.285Z,89.50
2017-09-23T23:53:54.851Z,89.29
2017-09-23T23:56:22.456Z,89.30
2017-09-23T23:58:50.158Z,89.23
